createdAt,value
2019-03-13T00:02:27.968Z,30.90
2019-03-13T00:04:56.640Z,31.40
2019-03-13T00:07:25.435Z,30.90
2019-03-13T00:09:55.150Z,31.70
2019-03-13T00:12:23.881Z,32.10
2019-03-13T00:14:52.641Z,32.50
2019-03-13T00:17:21.284Z,31.40
2019-03-13T00:19:50.014Z,30.70
2019-03-13T00:22:18.795Z,30.80
2019-03-13T00:24:47.567Z,31.30
2019-03-13T00:27:16.225Z,31.80
2019-03-13T00:29:44.933Z,32.90
2019-03-13T00:32:14.284Z,32.10
2019-03-13T00:34:52.508Z,30.70
2019-03-13T00:37:23.681Z,32.00
2019-03-13T00:39:52.428Z,31.40
2019-03-13T00:42:21.141Z,31.60
2019-03-13T00:44:49.984Z,30.10
2019-03-13T00:47:21.234Z,30.90
2019-03-13T00:49:49.982Z,30.30
2019-03-13T00:52:19.047Z,30.40
2019-03-13T00:54:47.695Z,30.40
2019-03-13T00:57:16.479Z,31.00
2019-03-13T00:59:45.224Z,31.00
2019-03-13T01:02:15.571Z,31.50
2019-03-13T01:05:02.340Z,32.20
2019-03-13T01:07:31.095Z,32.60
2019-03-13T01:09:59.832Z,32.90
2019-03-13T01:12:28.558Z,32.80
2019-03-13T01:14:57.762Z,32.30
2019-03-13T01:17:26.462Z,31.40
2019-03-13T01:19:55.215Z,31.60
2019-03-13T01:22:23.852Z,31.50
2019-03-13T01:24:52.447Z,32.60
2019-03-13T01:27:21.125Z,32.90
2019-03-13T01:29:49.856Z,33.70
2019-03-13T01:32:20.185Z,32.80
2019-03-13T01:34:53.304Z,32.60
2019-03-13T01:37:22.704Z,32.40
2019-03-13T01:39:51.447Z,31.90
2019-03-13T01:42:20.198Z,31.90
2019-03-13T01:44:48.837Z,31.50
2019-03-13T01:47:17.994Z,32.10
2019-03-13T01:49:46.731Z,32.70
2019-03-13T01:52:15.462Z,32.80
2019-03-13T01:54:44.220Z,33.10
2019-03-13T01:57:13.927Z,33.20
2019-03-13T01:59:42.697Z,33.60
2019-03-13T02:02:11.450Z,33.60
2019-03-13T02:04:40.169Z,34.20
2019-03-13T02:07:08.854Z,34.60
2019-03-13T02:09:38.913Z,34.20
2019-03-13T02:12:07.642Z,34.40
2019-03-13T02:14:39.412Z,34.90
2019-03-13T02:17:08.125Z,35.80
2019-03-13T02:19:36.872Z,36.50
2019-03-13T02:22:06.626Z,36.70
2019-03-13T02:24:35.306Z,36.90
2019-03-13T02:27:04.590Z,37.10
2019-03-13T02:29:33.350Z,37.10
2019-03-13T02:32:02.063Z,37.30
2019-03-13T02:34:30.798Z,37.30
2019-03-13T02:36:59.567Z,37.40
2019-03-13T02:39:28.322Z,37.70
2019-03-13T02:41:58.695Z,38.20
2019-03-13T02:44:27.364Z,38.70
2019-03-13T02:46:56.122Z,38.20
2019-03-13T02:49:24.802Z,38.10
2019-03-13T02:51:56.614Z,37.50
2019-03-13T02:54:25.460Z,37.70
2019-03-13T02:56:54.222Z,38.20
2019-03-13T02:59:24.103Z,38.30
2019-03-13T03:02:04.134Z,38.30
2019-03-13T03:04:32.814Z,38.60
2019-03-13T03:07:04.954Z,38.40
2019-03-13T03:09:33.656Z,38.20
2019-03-13T03:12:02.405Z,39.00
2019-03-13T03:14:31.205Z,38.90
2019-03-13T03:16:59.933Z,39.10
2019-03-13T03:19:28.687Z,38.10
2019-03-13T03:21:57.402Z,37.40
2019-03-13T03:24:26.155Z,36.50
2019-03-13T03:26:54.956Z,36.30
2019-03-13T03:29:23.678Z,35.00
2019-03-13T03:31:52.443Z,34.60
2019-03-13T03:34:21.150Z,35.60
2019-03-13T03:36:49.893Z,36.30
2019-03-13T03:39:18.640Z,35.80
2019-03-13T03:41:47.406Z,36.00
2019-03-13T03:44:16.130Z,35.90
2019-03-13T03:46:44.871Z,36.20
2019-03-13T03:49:13.622Z,36.90
2019-03-13T03:51:42.356Z,37.10
2019-03-13T03:54:11.156Z,37.60
2019-03-13T03:56:39.943Z,38.40
2019-03-13T03:59:11.281Z,37.30
2019-03-13T04:01:40.053Z,36.00
2019-03-13T04:04:08.914Z,36.60
2019-03-13T04:06:38.520Z,36.80
2019-03-13T04:09:07.366Z,36.10
2019-03-13T04:11:36.107Z,34.90
2019-03-13T04:14:07.756Z,34.70
2019-03-13T04:16:36.521Z,35.00
2019-03-13T04:19:05.869Z,36.00
2019-03-13T04:21:34.608Z,36.40
2019-03-13T04:24:03.377Z,36.50
2019-03-13T04:26:32.711Z,37.00
2019-03-13T04:29:04.103Z,37.00
2019-03-13T04:31:32.879Z,36.20
2019-03-13T04:34:08.448Z,36.70
2019-03-13T04:36:37.183Z,37.30
2019-03-13T04:39:06.342Z,37.80
2019-03-13T04:41:34.999Z,38.90
2019-03-13T04:44:03.604Z,39.40
2019-03-13T04:46:32.292Z,39.80
2019-03-13T04:49:03.609Z,40.90
2019-03-13T04:51:32.423Z,40.90
2019-03-13T04:54:01.191Z,40.90
2019-03-13T04:56:29.845Z,40.70
2019-03-13T04:58:58.611Z,40.20
2019-03-13T05:01:27.341Z,39.90
2019-03-13T05:03:56.155Z,39.30
2019-03-13T05:06:24.893Z,38.80
2019-03-13T05:08:55.020Z,38.90
2019-03-13T05:11:23.822Z,39.20
2019-03-13T05:13:52.486Z,39.20
2019-03-13T05:16:21.139Z,39.60
2019-03-13T05:18:49.862Z,38.90
2019-03-13T05:21:18.566Z,38.20
2019-03-13T05:23:47.206Z,37.90
2019-03-13T05:26:15.924Z,37.90
2019-03-13T05:28:44.675Z,37.60
2019-03-13T05:31:13.435Z,37.10
2019-03-13T05:33:42.153Z,37.40
2019-03-13T05:36:10.918Z,37.20
2019-03-13T05:38:39.582Z,37.30
2019-03-13T05:41:08.280Z,36.60
2019-03-13T05:43:37.053Z,36.30
2019-03-13T05:46:08.308Z,37.50
2019-03-13T05:48:36.927Z,38.00
2019-03-13T05:51:05.620Z,37.60
2019-03-13T05:53:34.169Z,37.00
2019-03-13T05:56:02.931Z,37.50
2019-03-13T05:58:33.319Z,38.20
2019-03-13T06:01:03.702Z,37.10
2019-03-13T06:03:39.867Z,36.40
2019-03-13T06:11:53.097Z,37.40
2019-03-13T06:17:25.591Z,38.20
2019-03-13T06:19:58.236Z,38.50
2019-03-13T06:22:26.982Z,39.70
2019-03-13T06:25:02.266Z,41.00
2019-03-13T06:27:34.608Z,41.80
2019-03-13T06:30:48.796Z,42.20
2019-03-13T06:33:23.442Z,42.30
2019-03-13T06:35:58.061Z,43.10
2019-03-13T06:38:26.711Z,41.40
2019-03-13T06:40:55.515Z,40.60
2019-03-13T06:43:24.153Z,40.60
2019-03-13T06:45:52.875Z,39.20
2019-03-13T06:48:22.009Z,38.20
2019-03-13T06:50:50.726Z,37.00
2019-03-13T06:53:20.527Z,37.40
2019-03-13T06:55:51.922Z,36.80
2019-03-13T06:58:23.426Z,36.80
2019-03-13T07:00:59.533Z,36.90
2019-03-13T07:03:39.151Z,37.00
2019-03-13T07:06:20.059Z,36.60
2019-03-13T07:08:51.622Z,36.60
2019-03-13T07:11:26.270Z,36.70
2019-03-13T07:17:05.307Z,36.50
2019-03-13T07:19:54.195Z,36.40
2019-03-13T07:22:42.831Z,35.90
2019-03-13T07:25:26.041Z,35.60
2019-03-13T07:28:06.568Z,35.40
2019-03-13T07:30:36.955Z,36.00
2019-03-13T07:33:24.226Z,36.20
2019-03-13T07:39:35.878Z,35.00
2019-03-13T07:45:52.905Z,33.60
2019-03-13T07:48:23.495Z,33.40
2019-03-13T07:54:22.569Z,33.60
2019-03-13T08:00:36.586Z,33.90
2019-03-13T08:03:24.641Z,33.00
2019-03-13T08:06:11.191Z,33.30
2019-03-13T08:08:41.473Z,31.90
2019-03-13T08:14:07.909Z,32.80
2019-03-13T08:19:45.424Z,34.10
2019-03-13T08:25:48.340Z,35.70
2019-03-13T08:28:18.663Z,35.30
2019-03-13T08:34:20.631Z,34.40
2019-03-13T08:36:53.362Z,33.40
2019-03-13T08:39:39.618Z,33.70
2019-03-13T08:45:41.697Z,33.30
2019-03-13T08:48:11.948Z,33.10
2019-03-13T08:54:25.651Z,35.20
2019-03-13T08:56:55.218Z,37.50
2019-03-13T08:59:26.054Z,39.00
2019-03-13T09:05:37.522Z,39.60
2019-03-13T09:08:23.841Z,39.80
2019-03-13T09:14:28.143Z,41.20
2019-03-13T09:20:47.204Z,42.90
2019-03-13T09:23:13.434Z,43.50
2019-03-13T09:25:46.475Z,43.90
2019-03-13T09:28:30.514Z,44.90
2019-03-13T09:34:42.204Z,45.30
2019-03-13T09:47:26.982Z,46.10
2019-03-13T09:49:55.976Z,45.20
2019-03-13T10:03:01.264Z,40.60
2019-03-13T10:05:31.692Z,40.70
2019-03-13T10:12:00.646Z,40.00
2019-03-13T10:14:31.045Z,40.50
2019-03-13T10:20:46.420Z,41.20
2019-03-13T10:26:45.173Z,41.40
2019-03-13T10:29:17.947Z,41.40
2019-03-13T10:35:36.697Z,42.40
2019-03-13T10:48:00.159Z,40.20
2019-03-13T10:50:50.360Z,41.00
2019-03-13T10:57:21.814Z,41.00
2019-03-13T11:00:09.342Z,41.40
2019-03-13T11:06:10.397Z,40.40
2019-03-13T11:12:23.994Z,40.70
2019-03-13T11:15:04.004Z,41.70
2019-03-13T11:41:07.646Z,43.10
2019-03-13T11:51:08.554Z,42.70
2019-03-13T11:54:00.160Z,42.80
2019-03-13T11:56:40.614Z,42.20
2019-03-13T11:59:08.128Z,42.00
2019-03-13T12:01:45.573Z,41.60
2019-03-13T12:04:26.336Z,40.90
2019-03-13T12:06:59.099Z,40.20
2019-03-13T12:09:32.194Z,40.30
2019-03-13T12:12:11.138Z,40.80
2019-03-13T12:14:50.142Z,40.90
2019-03-13T12:21:03.706Z,41.10
2019-03-13T12:27:08.625Z,42.40
2019-03-13T12:29:38.867Z,43.00
2019-03-13T12:32:14.921Z,42.90
2019-03-13T12:38:41.478Z,42.10
2019-03-13T12:41:11.648Z,40.90
2019-03-13T12:47:13.742Z,41.30
2019-03-13T12:50:01.975Z,41.00
2019-03-13T12:52:48.303Z,40.70
2019-03-13T12:55:24.228Z,40.20
2019-03-13T13:01:23.626Z,41.00
2019-03-13T13:07:24.731Z,42.70
2019-03-13T13:13:31.841Z,43.50
2019-03-13T13:16:23.701Z,44.20
2019-03-13T13:22:20.948Z,45.00
2019-03-13T13:34:58.720Z,45.30
2019-03-13T13:37:27.427Z,43.50
2019-03-13T13:43:24.902Z,41.60
2019-03-13T13:45:56.939Z,41.10
2019-03-13T13:48:25.563Z,39.60
2019-03-13T13:50:56.316Z,39.90
2019-03-13T13:53:24.689Z,39.50
2019-03-13T13:55:53.251Z,40.20
2019-03-13T13:58:21.986Z,40.90
2019-03-13T14:00:50.924Z,41.80
2019-03-13T14:03:19.596Z,38.40
2019-03-13T14:05:49.866Z,39.30
2019-03-13T14:08:18.716Z,40.80
2019-03-13T14:14:15.824Z,43.20
2019-03-13T14:16:53.477Z,43.80
2019-03-13T14:39:20.413Z,39.70
2019-03-13T14:42:00.996Z,40.20
2019-03-13T14:44:28.500Z,41.10
2019-03-13T14:59:26.348Z,42.30
2019-03-13T15:04:59.041Z,42.70
2019-03-13T15:07:27.470Z,44.00
2019-03-13T15:12:36.330Z,47.20
2019-03-13T15:20:55.800Z,47.40
2019-03-13T15:23:32.515Z,48.00
2019-03-13T15:26:06.834Z,47.80
2019-03-13T15:28:58.621Z,47.80
2019-03-13T15:31:30.424Z,48.10
2019-03-13T15:33:59.118Z,49.10
2019-03-13T15:40:41.490Z,48.20
2019-03-13T15:42:00.946Z,47.30
2019-03-13T15:44:30.928Z,47.60
2019-03-13T15:47:04.628Z,47.30
2019-03-13T15:49:36.102Z,47.00
2019-03-13T15:52:04.791Z,47.00
2019-03-13T15:54:33.402Z,47.50
2019-03-13T15:57:08.321Z,47.80
2019-03-13T15:59:42.734Z,47.90
2019-03-13T16:02:11.655Z,48.80
2019-03-13T16:04:47.133Z,48.20
2019-03-13T16:07:13.198Z,48.30
2019-03-13T16:09:42.032Z,48.90
2019-03-13T16:12:13.349Z,49.50
2019-03-13T16:14:41.901Z,49.70
2019-03-13T16:17:14.169Z,49.70
2019-03-13T16:19:42.566Z,49.40
2019-03-13T16:22:13.122Z,49.20
2019-03-13T16:24:41.942Z,49.00
2019-03-13T16:27:10.637Z,49.70
2019-03-13T16:29:41.729Z,49.70
2019-03-13T16:32:11.304Z,49.30
2019-03-13T16:34:40.023Z,49.50
2019-03-13T16:37:28.024Z,50.50
2019-03-13T16:40:01.430Z,51.60
2019-03-13T16:46:17.905Z,52.50
2019-03-13T16:49:32.396Z,53.20
2019-03-13T16:52:03.716Z,53.40
2019-03-13T16:54:33.288Z,54.30
2019-03-13T16:57:03.149Z,55.60
2019-03-13T17:02:29.044Z,56.70
2019-03-13T17:08:55.122Z,56.70
2019-03-13T17:13:40.549Z,56.60
2019-03-13T17:21:58.185Z,57.20
2019-03-13T17:24:35.565Z,57.80
2019-03-13T17:27:32.646Z,57.80
2019-03-13T17:29:46.697Z,58.30
2019-03-13T17:32:16.760Z,58.70
2019-03-13T17:34:45.588Z,58.90
2019-03-13T17:37:14.616Z,59.30
2019-03-13T17:39:45.087Z,59.20
2019-03-13T17:42:28.666Z,59.10
2019-03-13T17:50:57.740Z,60.00
2019-03-13T17:53:25.308Z,59.90
2019-03-13T18:06:35.281Z,60.00
2019-03-13T18:11:04.408Z,60.00
2019-03-13T18:18:12.517Z,60.80
2019-03-13T18:20:19.075Z,60.80
2019-03-13T18:22:37.493Z,60.40
2019-03-13T18:25:26.524Z,60.00
2019-03-13T18:27:57.974Z,60.10
2019-03-13T18:33:33.894Z,59.80
2019-03-13T18:36:04.357Z,59.10
2019-03-13T18:38:36.735Z,58.80
2019-03-13T18:41:09.464Z,58.90
2019-03-13T18:43:56.811Z,58.60
2019-03-13T18:47:12.168Z,58.40
2019-03-13T18:52:43.499Z,58.20
2019-03-13T19:44:20.151Z,61.50
2019-03-13T19:53:56.900Z,64.80
2019-03-13T19:57:03.501Z,64.10
2019-03-13T20:48:50.761Z,64.40
2019-03-13T20:51:38.006Z,64.60
2019-03-13T21:10:36.048Z,63.80
2019-03-13T21:48:41.378Z,64.70
2019-03-13T21:51:10.039Z,64.80
2019-03-13T21:53:38.857Z,62.90
2019-03-13T21:56:07.740Z,63.70
2019-03-13T21:58:40.374Z,61.60
2019-03-13T22:01:19.350Z,59.40
2019-03-13T22:03:44.328Z,59.70
2019-03-13T22:06:13.319Z,62.20
2019-03-13T22:08:56.773Z,60.50
2019-03-13T22:11:27.098Z,61.30
2019-03-13T22:13:57.446Z,63.10
2019-03-13T22:16:29.249Z,63.20
2019-03-13T22:18:57.891Z,64.00
2019-03-13T22:21:31.088Z,63.70
2019-03-13T22:23:59.661Z,64.00
2019-03-13T22:26:30.336Z,64.70
2019-03-13T22:28:58.793Z,65.40
2019-03-13T22:31:27.481Z,64.70
2019-03-13T22:33:56.238Z,61.70
2019-03-13T22:36:25.101Z,61.00
2019-03-13T22:38:53.827Z,60.50
2019-03-13T22:41:22.559Z,59.80
2019-03-13T22:43:51.360Z,58.70
2019-03-13T22:46:20.137Z,58.30
2019-03-13T22:48:58.157Z,57.40
2019-03-13T22:51:19.233Z,57.70
2019-03-13T22:53:47.963Z,58.50
2019-03-13T22:56:16.720Z,59.70
2019-03-13T22:58:45.439Z,59.40
2019-03-13T23:01:15.756Z,59.00
2019-03-13T23:03:45.104Z,59.20
2019-03-13T23:06:13.883Z,58.30
2019-03-13T23:08:42.790Z,57.80
2019-03-13T23:11:11.720Z,57.90
2019-03-13T23:13:40.475Z,56.80
2019-03-13T23:16:09.299Z,56.60
2019-03-13T23:18:37.992Z,56.20
2019-03-13T23:21:06.693Z,55.90
2019-03-13T23:23:35.388Z,56.00
2019-03-13T23:26:04.151Z,56.60
2019-03-13T23:28:32.929Z,57.30
2019-03-13T23:31:03.260Z,57.70
2019-03-13T23:33:33.295Z,58.10
2019-03-13T23:36:02.099Z,58.40
2019-03-13T23:38:30.726Z,58.80
2019-03-13T23:41:00.541Z,59.20
2019-03-13T23:43:29.243Z,59.00
2019-03-13T23:45:58.142Z,58.50
2019-03-13T23:48:27.013Z,58.70
2019-03-13T23:50:55.894Z,58.80
2019-03-13T23:53:24.621Z,59.00
2019-03-13T23:55:53.250Z,59.10
2019-03-13T23:58:21.898Z,59.10
